Disclaimer

Please do not use the information listed here in-flight or in-navigation, as they are not provided to us by the airports but are provided by volunteers, so they might be outdated.

Search


Regions


Airport information page

Radio informations:
Tower (TWR) - 120.5 MHz
RAAF AIR OPS - 11235 MHz
Ground (GND) - 121.7 MHz
DEP - 123.0 MHz
Clearance delivery - 133.8 MHz
Automatic Terminal Information Service (ATIS) - 126.25 MHz
Approach (APP) - 135.1 MHz

Airport informations:
Latitude: 33° 56' 46.00" S
Longitude: 151° 10' 38.00" E
Elevation: 21 feet - 6 meters
Operating hours: N/A
Operating agency: Civil government, landing fees and diplomatic clearance may be required
Timezone: UTC+10(+11DT)
Fuel: Jet A1, without icing nhibitor.

115/145 octane gasoline, leaded, MIL-L-5572F (PURPLE)

100/130 MIL Spec, low lead, aviation gasoline (BLUE)

Runway information:
07/25 - 8300 x 148 feet< - >2530 x 45 meters
16R/34L - 12999 x 148 feet< - >3962 x 45 meters
16L/34R - 7999 x 148 feet< - >2438 x 45 meters

Recent METARs:
YSSY 141530Z 35004KT CAVOK 20/17 Q1014 NOSIG
YSSY 141600Z 34006KT CAVOK 19/17 Q1014 FM1830 18015KT 9999 FEW010 FM1830 MOD TURB BLW 5000FT
YSSY 141630Z 35006KT CAVOK 19/17 Q1014 FM1815 18015KT 9999 FEW010 FM1930 18015KT 9999 BKN015 FM1815 MOD TURB BLW 5000FT

Airport on the map: